createdAt,value
2022-08-07T00:00:32.741Z,7.90
2022-08-07T00:03:02.788Z,6.43
2022-08-07T00:05:37.026Z,6.63
2022-08-07T00:08:07.747Z,5.35
2022-08-07T00:10:48.216Z,3.75
2022-08-07T00:13:27.131Z,3.70
2022-08-07T00:15:56.882Z,3.50
2022-08-07T00:18:27.325Z,4.10
2022-08-07T00:21:03.511Z,2.35
2022-08-07T00:23:40.177Z,3.78
2022-08-07T00:26:13.027Z,2.38
2022-08-07T00:28:46.030Z,2.65
2022-08-07T00:31:37.428Z,3.42
2022-08-07T00:34:08.724Z,4.88
2022-08-07T00:36:42.964Z,4.05
2022-08-07T00:39:16.437Z,4.43
2022-08-07T00:41:53.590Z,3.30
2022-08-07T00:44:30.564Z,4.40
2022-08-07T00:47:02.287Z,6.22
2022-08-07T00:50:20.637Z,3.22
2022-08-07T00:52:21.939Z,4.10
2022-08-07T00:54:53.349Z,3.08
2022-08-07T00:57:25.822Z,2.33
2022-08-07T00:59:55.346Z,5.43
2022-08-07T01:02:28.867Z,3.72
2022-08-07T01:04:59.276Z,4.07
2022-08-07T01:07:31.131Z,4.40
2022-08-07T01:10:06.897Z,2.92
2022-08-07T01:12:53.510Z,4.32
2022-08-07T01:16:01.160Z,2.67
2022-08-07T01:18:17.074Z,5.97
2022-08-07T01:20:57.099Z,5.22
2022-08-07T01:23:35.492Z,4.03
2022-08-07T01:26:12.114Z,2.65
2022-08-07T01:28:45.891Z,6.15
2022-08-07T01:31:19.067Z,4.97
2022-08-07T01:33:55.268Z,4.85
2022-08-07T01:36:33.813Z,6.55
2022-08-07T01:39:09.953Z,5.57
2022-08-07T01:41:40.796Z,4.93
2022-08-07T01:44:29.460Z,4.07
2022-08-07T01:47:01.243Z,4.97
2022-08-07T01:49:49.617Z,4.90
2022-08-07T01:52:26.859Z,4.43
2022-08-07T01:54:59.409Z,3.00
2022-08-07T01:58:01.562Z,4.53
2022-08-07T02:00:28.621Z,4.78
2022-08-07T02:03:18.232Z,2.88
2022-08-07T02:06:01.078Z,4.05
2022-08-07T02:08:31.860Z,3.30
2022-08-07T02:11:03.718Z,3.42
2022-08-07T02:13:58.087Z,5.30
2022-08-07T02:16:28.586Z,4.97
2022-08-07T02:19:05.523Z,4.72
2022-08-07T02:21:57.732Z,4.30
2022-08-07T02:24:29.530Z,3.90
2022-08-07T02:27:02.445Z,6.20
2022-08-07T02:29:32.970Z,3.78
2022-08-07T02:32:10.758Z,5.88
2022-08-07T02:34:50.984Z,6.47
2022-08-07T02:37:21.779Z,5.20
2022-08-07T02:40:02.175Z,4.38
2022-08-07T02:42:43.200Z,3.85
2022-08-07T02:45:58.548Z,4.20
2022-08-07T02:48:04.033Z,5.80
2022-08-07T02:50:43.684Z,6.45
2022-08-07T02:53:18.986Z,5.60
2022-08-07T02:56:03.327Z,5.65
2022-08-07T02:58:39.809Z,8.38
2022-08-07T03:01:19.117Z,7.10
2022-08-07T03:04:07.529Z,7.03
2022-08-07T03:06:38.887Z,5.40
2022-08-07T03:09:11.481Z,4.95
2022-08-07T03:11:51.685Z,7.10
2022-08-07T03:14:24.187Z,8.70
2022-08-07T03:16:54.447Z,6.53
2022-08-07T03:19:23.929Z,4.85
2022-08-07T03:21:58.888Z,5.37
2022-08-07T03:24:28.626Z,5.85
2022-08-07T03:27:03.101Z,5.78
2022-08-07T03:29:49.251Z,7.70
2022-08-07T03:32:23.045Z,9.75
2022-08-07T03:35:16.834Z,4.57
2022-08-07T03:37:53.283Z,6.90
2022-08-07T03:40:30.761Z,6.53
2022-08-07T03:43:10.012Z,5.63
2022-08-07T03:45:48.465Z,9.88
2022-08-07T03:48:17.756Z,6.05
2022-08-07T03:50:56.281Z,5.53
2022-08-07T03:54:00.628Z,5.38
2022-08-07T03:56:32.540Z,6.00
2022-08-07T03:59:08.706Z,7.10
2022-08-07T04:01:46.276Z,6.53
2022-08-07T04:04:18.391Z,6.68
2022-08-07T04:06:50.772Z,8.75
2022-08-07T04:09:23.427Z,6.25
2022-08-07T04:12:24.346Z,6.00
2022-08-07T04:14:43.751Z,10.60
2022-08-07T04:17:20.894Z,5.22
2022-08-07T04:19:54.147Z,8.88
2022-08-07T04:22:27.604Z,8.30
2022-08-07T04:25:01.438Z,6.83
2022-08-07T04:27:35.892Z,6.25
2022-08-07T04:30:35.319Z,6.18
2022-08-07T04:33:00.910Z,9.02
2022-08-07T04:35:36.604Z,9.55
2022-08-07T04:38:13.237Z,8.23
2022-08-07T04:40:51.203Z,8.82
2022-08-07T04:44:10.532Z,10.68
2022-08-07T04:46:20.113Z,7.93
2022-08-07T04:49:07.503Z,9.32
2022-08-07T04:52:01.381Z,11.38
2022-08-07T04:54:34.802Z,7.85
2022-08-07T04:58:12.382Z,12.90
2022-08-07T05:00:18.941Z,8.45
2022-08-07T05:03:17.171Z,9.02
2022-08-07T05:06:19.699Z,8.70
2022-08-07T05:09:01.654Z,11.18
2022-08-07T05:11:56.836Z,7.95
2022-08-07T05:14:56.532Z,10.13
2022-08-07T05:17:50.887Z,6.07
2022-08-07T05:20:12.887Z,9.32
2022-08-07T05:22:47.678Z,9.02
2022-08-07T05:25:25.854Z,6.22
2022-08-07T05:28:20.675Z,8.32
2022-08-07T05:30:54.249Z,5.93
2022-08-07T05:33:26.049Z,8.52
2022-08-07T05:35:56.545Z,6.15
2022-08-07T05:38:59.848Z,7.13
2022-08-07T05:41:21.705Z,8.85
2022-08-07T05:44:12.518Z,8.07
2022-08-07T05:46:42.935Z,10.02
2022-08-07T05:49:14.322Z,8.95
2022-08-07T05:51:46.650Z,9.02
2022-08-07T05:54:44.131Z,10.30
2022-08-07T05:57:09.436Z,8.00
2022-08-07T05:59:58.022Z,12.73
2022-08-07T06:02:31.063Z,7.25
2022-08-07T06:05:04.447Z,8.27
2022-08-07T06:08:13.362Z,8.77
2022-08-07T06:10:26.049Z,8.23
2022-08-07T06:12:55.704Z,8.43
2022-08-07T06:15:42.170Z,12.63
2022-08-07T06:18:14.525Z,8.70
2022-08-07T06:20:51.150Z,9.75
2022-08-07T06:24:37.178Z,10.00
2022-08-07T06:26:27.599Z,10.13
2022-08-07T06:29:01.144Z,9.13
2022-08-07T06:31:46.936Z,12.30
2022-08-07T06:34:20.859Z,13.88
2022-08-07T06:36:52.041Z,15.60
2022-08-07T06:40:16.590Z,12.77
2022-08-07T06:42:18.693Z,8.02
2022-08-07T06:44:51.291Z,11.98
2022-08-07T06:47:21.082Z,11.05
2022-08-07T06:49:51.612Z,8.43
2022-08-07T06:52:31.717Z,10.77
2022-08-07T06:55:32.304Z,10.10
2022-08-07T06:58:01.826Z,10.75
2022-08-07T07:00:38.184Z,11.50
2022-08-07T07:03:13.740Z,8.43
2022-08-07T07:06:03.283Z,9.63
2022-08-07T07:08:35.372Z,10.27
2022-08-07T07:11:14.103Z,12.30
2022-08-07T07:14:02.213Z,12.65
2022-08-07T07:16:49.431Z,8.82
2022-08-07T07:19:56.226Z,9.70
2022-08-07T07:22:40.006Z,7.85
2022-08-07T07:26:31.041Z,9.70
2022-08-07T07:28:02.639Z,8.20
2022-08-07T07:30:40.250Z,9.52
2022-08-07T07:33:12.286Z,8.13
2022-08-07T07:36:04.471Z,7.78
2022-08-07T07:38:36.007Z,8.63
2022-08-07T07:41:09.558Z,10.48
2022-08-07T07:44:14.837Z,10.23
2022-08-07T07:46:53.908Z,8.45
2022-08-07T07:50:35.167Z,8.60
2022-08-07T07:52:19.929Z,11.60
2022-08-07T07:54:52.061Z,9.77
2022-08-07T07:57:51.945Z,11.18
2022-08-07T08:00:29.046Z,10.40
2022-08-07T08:03:08.423Z,9.52
2022-08-07T08:05:50.455Z,9.70
2022-08-07T08:08:34.602Z,9.93
2022-08-07T08:11:16.272Z,8.98
2022-08-07T08:13:59.995Z,8.77
2022-08-07T08:16:36.232Z,8.38
2022-08-07T08:19:09.648Z,10.40
2022-08-07T08:22:17.592Z,11.75
2022-08-07T08:25:24.950Z,11.93
2022-08-07T08:28:03.598Z,10.98
2022-08-07T08:30:42.715Z,9.60
2022-08-07T08:33:21.987Z,8.75
2022-08-07T08:35:56.771Z,9.50
2022-08-07T08:38:34.264Z,10.48
2022-08-07T08:41:16.844Z,11.18
2022-08-07T08:43:56.148Z,11.07
2022-08-07T08:46:38.359Z,10.20
2022-08-07T08:49:15.153Z,9.00
2022-08-07T08:52:13.406Z,10.27
2022-08-07T08:54:50.429Z,9.45
2022-08-07T08:57:34.079Z,9.85
2022-08-07T09:00:07.949Z,9.93
2022-08-07T09:02:49.404Z,11.52
2022-08-07T09:05:42.185Z,13.15
2022-08-07T09:08:28.569Z,13.05
2022-08-07T09:11:08.187Z,9.80
2022-08-07T09:13:44.968Z,11.60
2022-08-07T09:16:30.000Z,9.50
2022-08-07T09:19:52.250Z,11.88
2022-08-07T09:22:37.251Z,10.57
2022-08-07T09:25:17.902Z,13.55
2022-08-07T09:28:01.931Z,10.23
2022-08-07T09:30:51.667Z,12.00
2022-08-07T09:33:57.620Z,9.52
2022-08-07T09:36:37.036Z,10.10
2022-08-07T09:39:55.290Z,9.90
2022-08-07T09:42:33.265Z,11.95
2022-08-07T09:47:51.832Z,10.70
2022-08-07T09:48:19.221Z,10.55
2022-08-07T09:51:02.747Z,11.90
2022-08-07T09:53:41.255Z,10.45
2022-08-07T09:56:37.480Z,9.48
2022-08-07T09:59:44.619Z,8.25
2022-08-07T10:05:20.064Z,10.27
2022-08-07T10:08:24.222Z,10.18
2022-08-07T10:11:16.807Z,9.02
2022-08-07T10:14:07.561Z,10.40
2022-08-07T10:17:14.024Z,10.30
2022-08-07T10:19:57.286Z,9.70
2022-08-07T10:23:01.918Z,8.02
2022-08-07T10:25:52.947Z,9.35
2022-08-07T10:28:49.337Z,9.50
2022-08-07T10:31:50.618Z,10.15
2022-08-07T10:34:37.290Z,9.27
2022-08-07T10:40:06.101Z,9.10
2022-08-07T10:42:42.075Z,9.85
2022-08-07T10:45:44.626Z,9.43
2022-08-07T10:48:24.408Z,14.15
2022-08-07T10:51:16.924Z,12.35
2022-08-07T10:54:12.938Z,8.50
2022-08-07T10:57:01.189Z,10.38
2022-08-07T10:59:47.463Z,7.88
2022-08-07T11:02:34.336Z,11.15
2022-08-07T11:05:48.841Z,10.85
2022-08-07T11:08:30.976Z,11.38
2022-08-07T11:11:09.021Z,9.15
2022-08-07T11:14:46.137Z,7.57
2022-08-07T11:16:38.208Z,11.38
2022-08-07T11:19:21.541Z,11.52
2022-08-07T11:22:18.800Z,7.97
2022-08-07T11:24:54.569Z,6.55
2022-08-07T11:28:02.115Z,11.15
2022-08-07T11:30:39.109Z,7.20
2022-08-07T11:33:53.978Z,12.20
2022-08-07T11:36:30.873Z,9.57
2022-08-07T11:39:14.652Z,11.80
2022-08-07T11:42:02.421Z,9.95
2022-08-07T11:44:52.283Z,9.98
2022-08-07T11:47:56.717Z,10.95
2022-08-07T11:50:57.420Z,10.30
2022-08-07T11:53:43.202Z,11.02
2022-08-07T11:56:58.025Z,11.95
2022-08-07T12:00:12.372Z,9.75
2022-08-07T12:03:44.805Z,9.73
2022-08-07T12:06:37.905Z,10.15
2022-08-07T12:09:16.134Z,9.80
2022-08-07T12:12:10.233Z,12.00
2022-08-07T12:14:56.277Z,9.80
2022-08-07T12:17:39.533Z,8.95
2022-08-07T12:20:30.294Z,11.40
2022-08-07T12:24:05.893Z,9.80
2022-08-07T12:26:34.478Z,9.82
2022-08-07T12:29:20.478Z,8.52
2022-08-07T12:32:15.868Z,8.07
2022-08-07T12:34:49.619Z,9.88
2022-08-07T12:37:28.535Z,11.35
2022-08-07T12:40:44.104Z,11.75
2022-08-07T12:43:10.276Z,7.22
2022-08-07T12:45:52.369Z,7.43
2022-08-07T12:48:41.524Z,11.23
2022-08-07T12:51:46.651Z,14.75
2022-08-07T12:54:37.180Z,11.20
2022-08-07T12:57:10.076Z,10.30
2022-08-07T12:59:54.288Z,8.70
2022-08-07T13:02:56.089Z,14.25
2022-08-07T13:06:03.452Z,9.98
2022-08-07T13:08:40.277Z,9.13
2022-08-07T13:11:25.790Z,11.52
2022-08-07T13:16:36.983Z,9.43
2022-08-07T13:19:21.684Z,12.80
2022-08-07T13:22:06.170Z,14.00
2022-08-07T13:24:53.893Z,12.85
2022-08-07T13:28:06.262Z,8.80
2022-08-07T13:30:19.735Z,7.50
2022-08-07T13:34:14.478Z,10.65
2022-08-07T13:36:17.664Z,9.52
2022-08-07T13:39:00.246Z,12.52
2022-08-07T13:41:41.487Z,9.18
2022-08-07T13:44:13.442Z,8.82
2022-08-07T13:46:49.184Z,8.77
2022-08-07T13:50:32.542Z,8.50
2022-08-07T13:52:26.476Z,8.02
2022-08-07T13:55:10.753Z,8.95
2022-08-07T13:57:59.153Z,6.90
2022-08-07T14:00:53.970Z,10.30
2022-08-07T14:03:30.020Z,11.73
2022-08-07T14:06:16.477Z,8.30
2022-08-07T14:08:53.505Z,9.32
2022-08-07T14:11:24.658Z,9.13
2022-08-07T14:14:04.722Z,8.00
2022-08-07T14:16:40.046Z,12.88
2022-08-07T14:20:42.772Z,6.60
2022-08-07T14:22:10.590Z,7.22
2022-08-07T14:24:46.670Z,10.50
2022-08-07T14:28:10.986Z,6.78
2022-08-07T14:30:14.930Z,9.65
2022-08-07T14:33:04.983Z,12.43
2022-08-07T14:35:44.867Z,10.02
2022-08-07T14:38:26.733Z,12.02
2022-08-07T14:41:04.831Z,10.97
2022-08-07T14:43:58.526Z,11.75
2022-08-07T14:46:32.001Z,9.05
2022-08-07T14:49:17.546Z,11.57
2022-08-07T14:52:04.770Z,11.45
2022-08-07T14:54:42.071Z,12.02
2022-08-07T14:57:19.737Z,11.63
2022-08-07T15:00:04.897Z,11.88
2022-08-07T15:07:58.262Z,9.60
2022-08-07T15:10:30.069Z,7.22
2022-08-07T15:13:11.429Z,11.95
2022-08-07T15:15:43.275Z,10.10
2022-08-07T15:21:58.395Z,8.77
2022-08-07T15:25:14.460Z,9.27
2022-08-07T15:27:15.303Z,7.80
2022-08-07T15:30:04.601Z,9.65
2022-08-07T15:32:51.069Z,8.02
2022-08-07T15:36:01.807Z,7.35
2022-08-07T15:38:31.091Z,7.15
2022-08-07T15:41:23.502Z,9.43
2022-08-07T15:44:02.348Z,8.50
2022-08-07T15:46:38.523Z,12.45
2022-08-07T15:49:15.065Z,9.15
2022-08-07T15:54:34.564Z,10.55
2022-08-07T15:57:39.467Z,7.78
2022-08-07T16:00:06.248Z,6.65
2022-08-07T16:02:46.963Z,6.95
2022-08-07T16:05:20.442Z,11.23
2022-08-07T16:10:47.316Z,8.75
2022-08-07T16:14:00.184Z,10.38
2022-08-07T16:16:49.358Z,8.30
2022-08-07T16:19:42.028Z,10.05
2022-08-07T16:22:55.620Z,8.57
2022-08-07T16:25:54.071Z,6.50
2022-08-07T16:30:08.245Z,7.88
2022-08-07T16:32:00.672Z,8.70
2022-08-07T16:34:48.663Z,7.63
2022-08-07T16:38:04.938Z,8.35
2022-08-07T16:41:12.552Z,13.95
2022-08-07T16:44:47.325Z,5.68
2022-08-07T16:47:56.642Z,9.55
2022-08-07T16:50:38.740Z,9.63
2022-08-07T16:54:02.475Z,6.40
2022-08-07T16:56:41.904Z,6.45
2022-08-07T16:59:25.679Z,6.85
2022-08-07T17:02:51.311Z,16.42
2022-08-07T17:06:28.357Z,5.45
2022-08-07T17:09:08.836Z,10.70
2022-08-07T17:12:04.999Z,7.03
2022-08-07T17:14:33.782Z,6.88
2022-08-07T17:17:07.678Z,7.25
2022-08-07T17:20:03.061Z,7.32
2022-08-07T17:22:42.432Z,11.35
2022-08-07T17:25:19.505Z,7.57
2022-08-07T17:27:59.572Z,16.27
2022-08-07T17:30:37.261Z,7.35
2022-08-07T17:34:08.620Z,9.07
2022-08-07T17:36:25.820Z,5.10
2022-08-07T17:39:10.652Z,6.18
2022-08-07T17:42:04.843Z,7.95
2022-08-07T17:44:49.529Z,8.35
2022-08-07T17:47:38.449Z,6.22
2022-08-07T17:50:19.413Z,7.47
2022-08-07T17:52:58.908Z,6.38
2022-08-07T17:55:55.815Z,6.97
2022-08-07T17:58:37.518Z,9.93
2022-08-07T18:01:21.522Z,8.48
2022-08-07T18:04:16.643Z,4.88
2022-08-07T18:07:19.221Z,6.47
2022-08-07T18:10:05.985Z,8.98
2022-08-07T18:12:52.693Z,5.68
2022-08-07T18:15:32.919Z,10.25
2022-08-07T18:18:45.267Z,5.40
2022-08-07T18:21:38.232Z,6.75
2022-08-07T18:24:01.573Z,7.25
2022-08-07T18:26:54.853Z,6.35
2022-08-07T18:30:05.928Z,5.20
2022-08-07T18:32:46.556Z,5.68
2022-08-07T18:35:22.563Z,6.35
2022-08-07T18:38:56.135Z,5.05
2022-08-07T18:41:21.038Z,3.23
2022-08-07T18:44:04.463Z,5.47
2022-08-07T18:46:48.022Z,7.05
2022-08-07T18:50:32.678Z,7.38
2022-08-07T18:52:53.092Z,3.85
2022-08-07T18:55:43.475Z,10.35
2022-08-07T18:58:35.940Z,5.53
2022-08-07T19:02:17.452Z,6.20
2022-08-07T19:04:28.115Z,11.57
2022-08-07T19:07:08.926Z,5.75
2022-08-07T19:09:55.695Z,5.15
2022-08-07T19:12:53.442Z,8.52
2022-08-07T19:16:05.527Z,6.00
2022-08-07T19:18:35.353Z,6.57
2022-08-07T19:21:44.023Z,8.30
2022-08-07T19:24:11.704Z,10.52
2022-08-07T19:28:58.336Z,6.00
2022-08-07T19:31:06.040Z,3.85
2022-08-07T19:32:59.200Z,14.00
2022-08-07T19:35:33.438Z,4.18
2022-08-07T19:38:15.097Z,4.25
2022-08-07T19:40:50.556Z,4.57
2022-08-07T19:43:48.776Z,3.90
2022-08-07T19:46:17.909Z,8.65
2022-08-07T19:48:54.155Z,3.47
2022-08-07T19:51:51.034Z,5.00
2022-08-07T19:54:33.180Z,5.63
2022-08-07T19:58:01.915Z,4.60
2022-08-07T20:00:09.024Z,12.50
2022-08-07T20:02:52.089Z,6.60
2022-08-07T20:05:28.141Z,3.47
2022-08-07T20:08:01.952Z,4.65
2022-08-07T20:10:52.352Z,5.72
2022-08-07T20:13:35.405Z,3.72
2022-08-07T20:16:05.580Z,4.38
2022-08-07T20:18:36.544Z,4.07
2022-08-07T20:21:21.221Z,4.82
2022-08-07T20:24:00.643Z,3.85
2022-08-07T20:26:45.256Z,4.88
2022-08-07T20:29:47.658Z,4.70
2022-08-07T20:32:23.145Z,7.07
2022-08-07T20:34:58.595Z,4.43
2022-08-07T20:37:34.025Z,4.50
2022-08-07T20:40:32.762Z,4.00
2022-08-07T20:42:59.510Z,4.82
2022-08-07T20:45:33.418Z,5.35
2022-08-07T20:48:29.884Z,4.28
2022-08-07T20:51:02.494Z,3.95
2022-08-07T20:54:03.780Z,6.32
2022-08-07T20:56:26.652Z,7.28
2022-08-07T20:59:02.624Z,4.60
2022-08-07T21:01:45.368Z,4.20
2022-08-07T21:04:28.876Z,4.70
2022-08-07T21:07:04.043Z,4.72
2022-08-07T21:09:53.222Z,5.68
2022-08-07T21:12:33.103Z,5.25
2022-08-07T21:15:09.308Z,8.38
2022-08-07T21:18:09.102Z,5.88
2022-08-07T21:20:47.898Z,5.07
2022-08-07T21:23:26.314Z,8.65
2022-08-07T21:26:08.826Z,6.65
2022-08-07T21:28:49.980Z,5.80
2022-08-07T21:32:10.810Z,6.20
2022-08-07T21:34:32.328Z,5.10
2022-08-07T21:37:12.513Z,7.15
2022-08-07T21:39:54.929Z,8.48
2022-08-07T21:42:45.993Z,7.63
2022-08-07T21:46:09.224Z,5.53
2022-08-07T21:48:27.845Z,4.50
2022-08-07T21:51:19.587Z,7.93
2022-08-07T21:53:53.290Z,9.77
2022-08-07T21:56:47.134Z,4.95
2022-08-07T22:00:05.418Z,5.43
2022-08-07T22:02:41.742Z,5.57
2022-08-07T22:05:22.180Z,4.32
2022-08-07T22:08:10.659Z,4.53
2022-08-07T22:10:42.337Z,4.85
2022-08-07T22:13:15.501Z,4.57
2022-08-07T22:16:44.692Z,4.22
2022-08-07T22:18:50.744Z,5.30
2022-08-07T22:22:04.927Z,4.65
2022-08-07T22:24:20.794Z,3.63
2022-08-07T22:26:57.624Z,3.88
2022-08-07T22:29:48.365Z,7.10
2022-08-07T22:32:27.677Z,4.20
2022-08-07T22:34:59.986Z,5.60
2022-08-07T22:38:04.460Z,4.30
2022-08-07T22:40:37.113Z,5.47
2022-08-07T22:43:10.911Z,5.60
2022-08-07T22:46:40.418Z,4.40
2022-08-07T22:49:06.660Z,3.90
2022-08-07T22:51:55.714Z,5.75
2022-08-07T22:54:57.061Z,4.68
2022-08-07T22:57:55.602Z,3.42
2022-08-07T23:00:33.292Z,4.90
2022-08-07T23:03:23.999Z,4.35
2022-08-07T23:06:24.046Z,4.93
2022-08-07T23:12:32.613Z,7.25
2022-08-07T23:16:04.673Z,6.23
2022-08-07T23:18:21.163Z,6.82
2022-08-07T23:21:07.313Z,6.95
2022-08-07T23:24:27.933Z,5.68
2022-08-07T23:27:33.464Z,5.28
2022-08-07T23:30:38.009Z,4.82
2022-08-07T23:34:35.094Z,4.20
2022-08-07T23:36:17.126Z,4.60
2022-08-07T23:39:08.424Z,6.90
2022-08-07T23:42:05.135Z,5.50
2022-08-07T23:44:56.491Z,3.60
2022-08-07T23:47:47.977Z,4.55
2022-08-07T23:50:37.792Z,4.50
2022-08-07T23:53:26.079Z,4.68
2022-08-07T23:56:22.913Z,4.47
2022-08-07T23:59:10.215Z,3.83
